Blythe, California
Current Conditions -  °F | °C
As of 6:52 PM on Wednesday 22 Oct 2014 (Local Time) from KBLH Reporting Station
Clear Clear  
Wind Chill: 85°   Ceiling: Unl
Heat Index: 85°   Visibility: 10mi
Dew Point: 46°   Wind: 5mph
Humidity: 26%   Direction: 90°E
Pressure: 29.88"   Gusts: NA
Location:  33.61°N, 114.59°W
Report Text: KBLH 230152Z AUTO 09004KT 10SM CLR 29/08 A2988 RMK AO2 SLP112 T02940078
Loading
Personal Weather Stations






























Interactive Weather Map
Tropical Storm Tracking
New forecast layout! Learn more

10-Day Weather Forecast

Advertisements
Track Severe Weather on mobile